sensor_id;sensor_type;location;lat;lon;timestamp;P1;durP1;ratioP1;P2;durP2;ratioP2
35644;SDS011;21764;52.042;6.830;2023-09-19T00:01:35;23.52;;;4.57;;
35644;SDS011;21764;52.042;6.830;2023-09-19T00:06:38;23.85;;;4.13;;
35644;SDS011;21764;52.042;6.830;2023-09-19T00:11:39;22.07;;;3.90;;
35644;SDS011;21764;52.042;6.830;2023-09-19T00:16:41;29.02;;;4.90;;
35644;SDS011;21764;52.042;6.830;2023-09-19T00:21:42;21.05;;;3.65;;
35644;SDS011;21764;52.042;6.830;2023-09-19T00:26:43;22.75;;;3.95;;
35644;SDS011;21764;52.042;6.830;2023-09-19T00:31:46;22.30;;;4.75;;
35644;SDS011;21764;52.042;6.830;2023-09-19T00:36:47;25.33;;;4.80;;
35644;SDS011;21764;52.042;6.830;2023-09-19T00:41:47;22.52;;;4.15;;
35644;SDS011;21764;52.042;6.830;2023-09-19T00:46:48;29.05;;;5.05;;
35644;SDS011;21764;52.042;6.830;2023-09-19T00:51:50;20.08;;;4.45;;
35644;SDS011;21764;52.042;6.830;2023-09-19T00:56:51;33.22;;;4.55;;
35644;SDS011;21764;52.042;6.830;2023-09-19T01:01:54;24.55;;;4.15;;
35644;SDS011;21764;52.042;6.830;2023-09-19T01:06:56;20.90;;;4.00;;
35644;SDS011;21764;52.042;6.830;2023-09-19T01:11:58;21.15;;;4.45;;
35644;SDS011;21764;52.042;6.830;2023-09-19T01:17:08;16.38;;;3.75;;
35644;SDS011;21764;52.042;6.830;2023-09-19T01:33:05;19.88;;;3.78;;
35644;SDS011;21764;52.042;6.830;2023-09-19T01:38:07;22.63;;;4.00;;
35644;SDS011;21764;52.042;6.830;2023-09-19T01:43:20;21.45;;;4.18;;
35644;SDS011;21764;52.042;6.830;2023-09-19T01:48:46;23.65;;;4.03;;
35644;SDS011;21764;52.042;6.830;2023-09-19T01:54:09;19.43;;;4.43;;
35644;SDS011;21764;52.042;6.830;2023-09-19T01:59:13;27.00;;;4.30;;
35644;SDS011;21764;52.042;6.830;2023-09-19T02:04:21;21.25;;;4.63;;
35644;SDS011;21764;52.042;6.830;2023-09-19T02:09:22;26.08;;;5.68;;
35644;SDS011;21764;52.042;6.830;2023-09-19T02:14:23;29.35;;;4.50;;
35644;SDS011;21764;52.042;6.830;2023-09-19T02:19:23;26.88;;;5.00;;
35644;SDS011;21764;52.042;6.830;2023-09-19T02:24:24;34.15;;;5.28;;
35644;SDS011;21764;52.042;6.830;2023-09-19T02:29:26;23.75;;;4.18;;
35644;SDS011;21764;52.042;6.830;2023-09-19T02:34:29;29.42;;;4.30;;
35644;SDS011;21764;52.042;6.830;2023-09-19T02:39:30;24.10;;;4.13;;
35644;SDS011;21764;52.042;6.830;2023-09-19T02:44:31;23.42;;;4.32;;
35644;SDS011;21764;52.042;6.830;2023-09-19T02:49:32;21.85;;;3.78;;
35644;SDS011;21764;52.042;6.830;2023-09-19T02:54:33;23.05;;;3.60;;
35644;SDS011;21764;52.042;6.830;2023-09-19T02:59:33;22.13;;;4.28;;
35644;SDS011;21764;52.042;6.830;2023-09-19T03:04:36;23.27;;;4.43;;
35644;SDS011;21764;52.042;6.830;2023-09-19T03:09:37;19.80;;;4.00;;
35644;SDS011;21764;52.042;6.830;2023-09-19T03:14:38;22.98;;;3.92;;
35644;SDS011;21764;52.042;6.830;2023-09-19T03:19:38;25.10;;;3.92;;
35644;SDS011;21764;52.042;6.830;2023-09-19T03:24:39;31.60;;;3.95;;
35644;SDS011;21764;52.042;6.830;2023-09-19T03:29:40;29.50;;;5.07;;
35644;SDS011;21764;52.042;6.830;2023-09-19T03:34:40;31.20;;;4.25;;
35644;SDS011;21764;52.042;6.830;2023-09-19T03:39:43;34.58;;;4.57;;
35644;SDS011;21764;52.042;6.830;2023-09-19T03:44:43;24.92;;;3.92;;
35644;SDS011;21764;52.042;6.830;2023-09-19T03:49:44;24.20;;;4.35;;
35644;SDS011;21764;52.042;6.830;2023-09-19T03:54:45;25.02;;;4.05;;
35644;SDS011;21764;52.042;6.830;2023-09-19T03:59:46;30.15;;;4.43;;
35644;SDS011;21764;52.042;6.830;2023-09-19T04:04:50;24.88;;;4.30;;
35644;SDS011;21764;52.042;6.830;2023-09-19T04:14:55;21.17;;;3.90;;
35644;SDS011;21764;52.042;6.830;2023-09-19T04:19:56;27.92;;;4.07;;
35644;SDS011;21764;52.042;6.830;2023-09-19T04:24:57;26.45;;;3.80;;
35644;SDS011;21764;52.042;6.830;2023-09-19T04:29:58;24.27;;;4.15;;
35644;SDS011;21764;52.042;6.830;2023-09-19T04:34:59;21.45;;;3.70;;
35644;SDS011;21764;52.042;6.830;2023-09-19T04:40:00;19.92;;;4.07;;
35644;SDS011;21764;52.042;6.830;2023-09-19T04:45:01;24.00;;;3.38;;
35644;SDS011;21764;52.042;6.830;2023-09-19T04:50:01;25.85;;;4.40;;
35644;SDS011;21764;52.042;6.830;2023-09-19T04:55:04;21.27;;;3.17;;
35644;SDS011;21764;52.042;6.830;2023-09-19T05:00:05;19.38;;;3.88;;
35644;SDS011;21764;52.042;6.830;2023-09-19T05:05:12;24.23;;;3.97;;
35644;SDS011;21764;52.042;6.830;2023-09-19T05:10:17;20.15;;;4.13;;
35644;SDS011;21764;52.042;6.830;2023-09-19T05:15:20;19.02;;;3.70;;
35644;SDS011;21764;52.042;6.830;2023-09-19T05:20:21;27.02;;;4.05;;
35644;SDS011;21764;52.042;6.830;2023-09-19T05:25:31;24.15;;;4.30;;
35644;SDS011;21764;52.042;6.830;2023-09-19T05:30:32;21.83;;;3.20;;
35644;SDS011;21764;52.042;6.830;2023-09-19T05:35:33;19.27;;;3.72;;
35644;SDS011;21764;52.042;6.830;2023-09-19T05:40:34;15.77;;;3.10;;
35644;SDS011;21764;52.042;6.830;2023-09-19T05:45:35;13.32;;;3.78;;
35644;SDS011;21764;52.042;6.830;2023-09-19T05:50:37;16.48;;;3.33;;
35644;SDS011;21764;52.042;6.830;2023-09-19T05:55:38;15.10;;;3.22;;
35644;SDS011;21764;52.042;6.830;2023-09-19T06:00:40;18.17;;;3.72;;
35644;SDS011;21764;52.042;6.830;2023-09-19T06:05:43;13.63;;;3.05;;
35644;SDS011;21764;52.042;6.830;2023-09-19T06:10:43;19.75;;;3.28;;
35644;SDS011;21764;52.042;6.830;2023-09-19T06:15:46;21.02;;;4.03;;
35644;SDS011;21764;52.042;6.830;2023-09-19T06:20:47;17.95;;;3.20;;
35644;SDS011;21764;52.042;6.830;2023-09-19T06:25:50;20.23;;;3.22;;
35644;SDS011;21764;52.042;6.830;2023-09-19T06:30:51;20.30;;;4.65;;
35644;SDS011;21764;52.042;6.830;2023-09-19T06:35:52;20.67;;;3.90;;
35644;SDS011;21764;52.042;6.830;2023-09-19T06:40:59;15.15;;;3.10;;
35644;SDS011;21764;52.042;6.830;2023-09-19T06:46:01;15.60;;;3.97;;
35644;SDS011;21764;52.042;6.830;2023-09-19T06:51:02;21.08;;;4.07;;
35644;SDS011;21764;52.042;6.830;2023-09-19T06:56:05;16.40;;;3.72;;
35644;SDS011;21764;52.042;6.830;2023-09-19T07:01:06;17.10;;;3.95;;
35644;SDS011;21764;52.042;6.830;2023-09-19T07:06:07;19.20;;;3.67;;
35644;SDS011;21764;52.042;6.830;2023-09-19T07:11:08;15.07;;;3.20;;
35644;SDS011;21764;52.042;6.830;2023-09-19T07:16:09;19.92;;;3.67;;
35644;SDS011;21764;52.042;6.830;2023-09-19T07:21:27;18.67;;;3.40;;
35644;SDS011;21764;52.042;6.830;2023-09-19T07:26:28;15.43;;;3.50;;
35644;SDS011;21764;52.042;6.830;2023-09-19T07:31:28;14.20;;;3.50;;
35644;SDS011;21764;52.042;6.830;2023-09-19T07:36:30;13.80;;;3.20;;
35644;SDS011;21764;52.042;6.830;2023-09-19T07:41:32;16.88;;;3.60;;
35644;SDS011;21764;52.042;6.830;2023-09-19T07:46:34;17.40;;;3.85;;
35644;SDS011;21764;52.042;6.830;2023-09-19T07:51:34;16.50;;;3.70;;
35644;SDS011;21764;52.042;6.830;2023-09-19T07:56:35;23.60;;;4.03;;
35644;SDS011;21764;52.042;6.830;2023-09-19T08:01:37;18.42;;;3.80;;
35644;SDS011;21764;52.042;6.830;2023-09-19T08:06:39;18.20;;;3.83;;
35644;SDS011;21764;52.042;6.830;2023-09-19T08:11:40;18.52;;;4.30;;
35644;SDS011;21764;52.042;6.830;2023-09-19T08:16:41;21.80;;;4.25;;
35644;SDS011;21764;52.042;6.830;2023-09-19T08:21:43;15.88;;;4.13;;
35644;SDS011;21764;52.042;6.830;2023-09-19T08:26:47;15.63;;;3.65;;
35644;SDS011;21764;52.042;6.830;2023-09-19T08:31:48;16.02;;;3.83;;
35644;SDS011;21764;52.042;6.830;2023-09-19T08:36:55;15.05;;;3.63;;
35644;SDS011;21764;52.042;6.830;2023-09-19T08:41:59;17.85;;;3.88;;
35644;SDS011;21764;52.042;6.830;2023-09-19T08:47:10;15.93;;;3.90;;
35644;SDS011;21764;52.042;6.830;2023-09-19T08:52:22;17.63;;;4.00;;
35644;SDS011;21764;52.042;6.830;2023-09-19T08:57:26;17.17;;;3.95;;
35644;SDS011;21764;52.042;6.830;2023-09-19T09:02:29;18.48;;;4.00;;
35644;SDS011;21764;52.042;6.830;2023-09-19T09:07:31;17.27;;;4.28;;
35644;SDS011;21764;52.042;6.830;2023-09-19T09:12:34;19.73;;;4.13;;
35644;SDS011;21764;52.042;6.830;2023-09-19T09:17:37;19.13;;;3.75;;
35644;SDS011;21764;52.042;6.830;2023-09-19T09:22:38;12.13;;;3.63;;
35644;SDS011;21764;52.042;6.830;2023-09-19T09:27:46;22.80;;;4.25;;
35644;SDS011;21764;52.042;6.830;2023-09-19T09:33:09;20.13;;;4.38;;
35644;SDS011;21764;52.042;6.830;2023-09-19T09:38:11;16.88;;;3.47;;
35644;SDS011;21764;52.042;6.830;2023-09-19T09:43:30;20.45;;;3.88;;
35644;SDS011;21764;52.042;6.830;2023-09-19T09:48:35;15.20;;;4.30;;
35644;SDS011;21764;52.042;6.830;2023-09-19T09:53:39;15.27;;;3.47;;
35644;SDS011;21764;52.042;6.830;2023-09-19T09:58:50;20.17;;;4.05;;
35644;SDS011;21764;52.042;6.830;2023-09-19T10:03:58;12.85;;;3.80;;
35644;SDS011;21764;52.042;6.830;2023-09-19T10:09:01;12.38;;;3.60;;
35644;SDS011;21764;52.042;6.830;2023-09-19T10:14:15;21.33;;;3.88;;
35644;SDS011;21764;52.042;6.830;2023-09-19T10:19:20;16.15;;;3.58;;
35644;SDS011;21764;52.042;6.830;2023-09-19T10:24:30;15.55;;;3.28;;
35644;SDS011;21764;52.042;6.830;2023-09-19T10:34:36;21.27;;;3.80;;
35644;SDS011;21764;52.042;6.830;2023-09-19T10:39:39;20.70;;;3.92;;
35644;SDS011;21764;52.042;6.830;2023-09-19T10:44:40;12.50;;;3.60;;
35644;SDS011;21764;52.042;6.830;2023-09-19T10:49:44;16.65;;;3.67;;
35644;SDS011;21764;52.042;6.830;2023-09-19T10:54:50;15.65;;;3.67;;
35644;SDS011;21764;52.042;6.830;2023-09-19T11:00:05;19.83;;;3.72;;
35644;SDS011;21764;52.042;6.830;2023-09-19T11:05:27;16.17;;;3.35;;
35644;SDS011;21764;52.042;6.830;2023-09-19T11:10:47;16.83;;;3.72;;
35644;SDS011;21764;52.042;6.830;2023-09-19T11:26:43;15.75;;;3.60;;
35644;SDS011;21764;52.042;6.830;2023-09-19T11:31:47;15.37;;;3.67;;
35644;SDS011;21764;52.042;6.830;2023-09-19T11:36:49;15.55;;;4.00;;
35644;SDS011;21764;52.042;6.830;2023-09-19T11:41:50;16.77;;;3.33;;
35644;SDS011;21764;52.042;6.830;2023-09-19T11:46:56;12.70;;;3.13;;
35644;SDS011;21764;52.042;6.830;2023-09-19T11:51:59;13.75;;;2.80;;
35644;SDS011;21764;52.042;6.830;2023-09-19T11:57:02;17.08;;;3.20;;
35644;SDS011;21764;52.042;6.830;2023-09-19T12:02:04;17.88;;;3.40;;
35644;SDS011;21764;52.042;6.830;2023-09-19T12:07:13;11.65;;;3.38;;
35644;SDS011;21764;52.042;6.830;2023-09-19T12:12:19;14.57;;;3.10;;
35644;SDS011;21764;52.042;6.830;2023-09-19T12:17:21;14.73;;;3.25;;
35644;SDS011;21764;52.042;6.830;2023-09-19T12:22:24;16.48;;;3.60;;
35644;SDS011;21764;52.042;6.830;2023-09-19T12:27:25;14.38;;;3.22;;
35644;SDS011;21764;52.042;6.830;2023-09-19T12:32:36;16.63;;;3.15;;
35644;SDS011;21764;52.042;6.830;2023-09-19T12:37:43;14.27;;;3.20;;
35644;SDS011;21764;52.042;6.830;2023-09-19T12:43:04;12.40;;;2.80;;
35644;SDS011;21764;52.042;6.830;2023-09-19T12:53:39;11.32;;;2.47;;
35644;SDS011;21764;52.042;6.830;2023-09-19T13:09:30;16.50;;;2.78;;
35644;SDS011;21764;52.042;6.830;2023-09-19T13:14:38;15.75;;;3.13;;
35644;SDS011;21764;52.042;6.830;2023-09-19T13:19:45;11.10;;;2.70;;
35644;SDS011;21764;52.042;6.830;2023-09-19T13:24:49;10.50;;;3.10;;
35644;SDS011;21764;52.042;6.830;2023-09-19T13:29:51;8.45;;;2.15;;
35644;SDS011;21764;52.042;6.830;2023-09-19T13:34:52;9.63;;;2.35;;
35644;SDS011;21764;52.042;6.830;2023-09-19T13:39:52;10.45;;;2.20;;
35644;SDS011;21764;52.042;6.830;2023-09-19T13:44:53;12.88;;;2.55;;
35644;SDS011;21764;52.042;6.830;2023-09-19T13:49:54;11.45;;;2.50;;
35644;SDS011;21764;52.042;6.830;2023-09-19T13:54:55;12.50;;;2.20;;
35644;SDS011;21764;52.042;6.830;2023-09-19T13:59:58;11.38;;;2.15;;
35644;SDS011;21764;52.042;6.830;2023-09-19T14:04:59;9.30;;;2.03;;
35644;SDS011;21764;52.042;6.830;2023-09-19T14:09:59;16.60;;;2.20;;
35644;SDS011;21764;52.042;6.830;2023-09-19T14:15:00;14.73;;;2.05;;
35644;SDS011;21764;52.042;6.830;2023-09-19T14:20:01;9.68;;;1.92;;
35644;SDS011;21764;52.042;6.830;2023-09-19T14:25:03;14.90;;;2.75;;
35644;SDS011;21764;52.042;6.830;2023-09-19T14:30:05;9.35;;;1.70;;
35644;SDS011;21764;52.042;6.830;2023-09-19T14:35:07;12.00;;;2.22;;
35644;SDS011;21764;52.042;6.830;2023-09-19T14:40:09;10.77;;;1.52;;
35644;SDS011;21764;52.042;6.830;2023-09-19T14:45:10;15.95;;;2.28;;
35644;SDS011;21764;52.042;6.830;2023-09-19T14:50:11;7.75;;;1.40;;
35644;SDS011;21764;52.042;6.830;2023-09-19T14:55:12;7.13;;;1.75;;
35644;SDS011;21764;52.042;6.830;2023-09-19T15:00:14;12.43;;;2.15;;
35644;SDS011;21764;52.042;6.830;2023-09-19T15:05:16;8.57;;;1.98;;
35644;SDS011;21764;52.042;6.830;2023-09-19T15:10:17;15.80;;;2.28;;
35644;SDS011;21764;52.042;6.830;2023-09-19T15:15:18;13.63;;;2.05;;
35644;SDS011;21764;52.042;6.830;2023-09-19T15:20:19;10.43;;;1.90;;
35644;SDS011;21764;52.042;6.830;2023-09-19T15:25:19;4.90;;;1.40;;
35644;SDS011;21764;52.042;6.830;2023-09-19T15:30:20;9.02;;;1.50;;
35644;SDS011;21764;52.042;6.830;2023-09-19T15:35:21;9.10;;;1.65;;
35644;SDS011;21764;52.042;6.830;2023-09-19T15:40:22;8.90;;;1.65;;
35644;SDS011;21764;52.042;6.830;2023-09-19T15:45:25;7.22;;;1.67;;
35644;SDS011;21764;52.042;6.830;2023-09-19T15:50:26;8.70;;;1.52;;
35644;SDS011;21764;52.042;6.830;2023-09-19T15:55:26;7.38;;;1.50;;
35644;SDS011;21764;52.042;6.830;2023-09-19T16:00:27;9.85;;;1.40;;
35644;SDS011;21764;52.042;6.830;2023-09-19T16:05:28;7.65;;;1.83;;
35644;SDS011;21764;52.042;6.830;2023-09-19T16:10:36;15.02;;;1.50;;
35644;SDS011;21764;52.042;6.830;2023-09-19T16:15:41;2.65;;;1.35;;
35644;SDS011;21764;52.042;6.830;2023-09-19T16:25:45;7.22;;;1.48;;
35644;SDS011;21764;52.042;6.830;2023-09-19T16:30:47;9.57;;;1.60;;
35644;SDS011;21764;52.042;6.830;2023-09-19T16:35:48;10.90;;;1.55;;
35644;SDS011;21764;52.042;6.830;2023-09-19T16:40:52;7.63;;;1.95;;
35644;SDS011;21764;52.042;6.830;2023-09-19T16:50:54;8.35;;;1.90;;
35644;SDS011;21764;52.042;6.830;2023-09-19T16:56:03;4.90;;;1.60;;
35644;SDS011;21764;52.042;6.830;2023-09-19T17:01:13;10.80;;;1.48;;
35644;SDS011;21764;52.042;6.830;2023-09-19T17:06:16;8.65;;;1.73;;
35644;SDS011;21764;52.042;6.830;2023-09-19T17:11:19;7.38;;;1.90;;
35644;SDS011;21764;52.042;6.830;2023-09-19T17:16:21;11.32;;;2.85;;
35644;SDS011;21764;52.042;6.830;2023-09-19T17:21:22;11.70;;;2.05;;
35644;SDS011;21764;52.042;6.830;2023-09-19T17:26:24;8.02;;;1.77;;
35644;SDS011;21764;52.042;6.830;2023-09-19T17:31:26;7.03;;;1.75;;
35644;SDS011;21764;52.042;6.830;2023-09-19T17:36:28;6.45;;;1.55;;
35644;SDS011;21764;52.042;6.830;2023-09-19T17:41:32;8.77;;;1.70;;
35644;SDS011;21764;52.042;6.830;2023-09-19T17:46:32;5.90;;;1.48;;
35644;SDS011;21764;52.042;6.830;2023-09-19T17:51:36;8.00;;;2.10;;
35644;SDS011;21764;52.042;6.830;2023-09-19T17:56:37;11.75;;;2.20;;
35644;SDS011;21764;52.042;6.830;2023-09-19T18:01:39;10.43;;;2.20;;
35644;SDS011;21764;52.042;6.830;2023-09-19T18:06:42;11.30;;;1.95;;
35644;SDS011;21764;52.042;6.830;2023-09-19T18:11:43;9.38;;;1.95;;
35644;SDS011;21764;52.042;6.830;2023-09-19T18:16:43;7.53;;;1.90;;
35644;SDS011;21764;52.042;6.830;2023-09-19T18:21:44;9.80;;;2.47;;
35644;SDS011;21764;52.042;6.830;2023-09-19T18:26:46;12.32;;;2.20;;
35644;SDS011;21764;52.042;6.830;2023-09-19T18:31:47;7.93;;;2.05;;
35644;SDS011;21764;52.042;6.830;2023-09-19T18:36:47;12.65;;;2.70;;
35644;SDS011;21764;52.042;6.830;2023-09-19T18:41:49;6.88;;;1.98;;
35644;SDS011;21764;52.042;6.830;2023-09-19T18:46:51;11.38;;;3.00;;
35644;SDS011;21764;52.042;6.830;2023-09-19T18:51:52;7.75;;;1.98;;
35644;SDS011;21764;52.042;6.830;2023-09-19T18:56:53;6.90;;;2.08;;
35644;SDS011;21764;52.042;6.830;2023-09-19T19:01:54;7.18;;;2.25;;
35644;SDS011;21764;52.042;6.830;2023-09-19T19:06:55;13.32;;;1.85;;
35644;SDS011;21764;52.042;6.830;2023-09-19T19:11:56;8.90;;;2.08;;
35644;SDS011;21764;52.042;6.830;2023-09-19T19:16:56;6.95;;;2.03;;
35644;SDS011;21764;52.042;6.830;2023-09-19T19:21:58;10.10;;;2.22;;
35644;SDS011;21764;52.042;6.830;2023-09-19T19:26:59;12.77;;;2.50;;
35644;SDS011;21764;52.042;6.830;2023-09-19T19:32:00;9.52;;;2.15;;
35644;SDS011;21764;52.042;6.830;2023-09-19T19:37:01;11.85;;;2.25;;
35644;SDS011;21764;52.042;6.830;2023-09-19T19:42:03;8.65;;;1.92;;
35644;SDS011;21764;52.042;6.830;2023-09-19T19:47:05;5.22;;;1.75;;
35644;SDS011;21764;52.042;6.830;2023-09-19T19:52:06;6.90;;;2.13;;
35644;SDS011;21764;52.042;6.830;2023-09-19T19:57:06;12.40;;;2.22;;
35644;SDS011;21764;52.042;6.830;2023-09-19T20:02:07;10.75;;;2.80;;
35644;SDS011;21764;52.042;6.830;2023-09-19T20:07:07;13.88;;;2.13;;
35644;SDS011;21764;52.042;6.830;2023-09-19T20:12:11;8.25;;;2.17;;
35644;SDS011;21764;52.042;6.830;2023-09-19T20:17:11;10.55;;;2.78;;
35644;SDS011;21764;52.042;6.830;2023-09-19T20:22:12;12.48;;;2.13;;
35644;SDS011;21764;52.042;6.830;2023-09-19T20:27:13;9.30;;;2.00;;
35644;SDS011;21764;52.042;6.830;2023-09-19T20:32:14;12.88;;;2.22;;
35644;SDS011;21764;52.042;6.830;2023-09-19T20:37:15;12.18;;;2.35;;
35644;SDS011;21764;52.042;6.830;2023-09-19T20:42:16;8.65;;;2.58;;
35644;SDS011;21764;52.042;6.830;2023-09-19T20:47:17;7.38;;;2.78;;
35644;SDS011;21764;52.042;6.830;2023-09-19T20:52:17;11.18;;;2.50;;
35644;SDS011;21764;52.042;6.830;2023-09-19T20:57:18;13.40;;;2.55;;
35644;SDS011;21764;52.042;6.830;2023-09-19T21:02:19;9.75;;;2.28;;
35644;SDS011;21764;52.042;6.830;2023-09-19T21:07:20;9.75;;;2.08;;
35644;SDS011;21764;52.042;6.830;2023-09-19T21:12:21;12.05;;;2.60;;
35644;SDS011;21764;52.042;6.830;2023-09-19T21:17:22;10.13;;;2.53;;
35644;SDS011;21764;52.042;6.830;2023-09-19T21:22:23;10.02;;;2.33;;
35644;SDS011;21764;52.042;6.830;2023-09-19T21:27:26;8.27;;;2.08;;
35644;SDS011;21764;52.042;6.830;2023-09-19T21:32:27;9.18;;;2.58;;
35644;SDS011;21764;52.042;6.830;2023-09-19T21:37:27;8.13;;;2.05;;
35644;SDS011;21764;52.042;6.830;2023-09-19T21:42:28;9.93;;;2.10;;
35644;SDS011;21764;52.042;6.830;2023-09-19T21:47:30;12.35;;;2.28;;
35644;SDS011;21764;52.042;6.830;2023-09-19T21:52:31;11.60;;;3.03;;
35644;SDS011;21764;52.042;6.830;2023-09-19T21:57:31;11.30;;;2.58;;
35644;SDS011;21764;52.042;6.830;2023-09-19T22:02:32;6.40;;;2.25;;
35644;SDS011;21764;52.042;6.830;2023-09-19T22:07:34;18.02;;;2.83;;
35644;SDS011;21764;52.042;6.830;2023-09-19T22:12:34;13.23;;;2.70;;
35644;SDS011;21764;52.042;6.830;2023-09-19T22:17:35;8.95;;;2.30;;
35644;SDS011;21764;52.042;6.830;2023-09-19T22:22:36;15.70;;;2.95;;
35644;SDS011;21764;52.042;6.830;2023-09-19T22:27:37;9.25;;;2.53;;
35644;SDS011;21764;52.042;6.830;2023-09-19T22:32:38;10.48;;;2.25;;
35644;SDS011;21764;52.042;6.830;2023-09-19T22:37:39;7.85;;;2.42;;
35644;SDS011;21764;52.042;6.830;2023-09-19T22:42:40;10.77;;;2.30;;
35644;SDS011;21764;52.042;6.830;2023-09-19T22:47:41;12.38;;;2.63;;
35644;SDS011;21764;52.042;6.830;2023-09-19T22:52:44;11.57;;;2.17;;
35644;SDS011;21764;52.042;6.830;2023-09-19T22:57:53;8.32;;;2.40;;
35644;SDS011;21764;52.042;6.830;2023-09-19T23:02:55;11.55;;;2.60;;
35644;SDS011;21764;52.042;6.830;2023-09-19T23:07:56;12.73;;;2.50;;
35644;SDS011;21764;52.042;6.830;2023-09-19T23:12:59;8.27;;;2.40;;
35644;SDS011;21764;52.042;6.830;2023-09-19T23:18:00;13.52;;;2.30;;
35644;SDS011;21764;52.042;6.830;2023-09-19T23:23:00;10.90;;;2.80;;
35644;SDS011;21764;52.042;6.830;2023-09-19T23:28:04;14.52;;;3.40;;
35644;SDS011;21764;52.042;6.830;2023-09-19T23:50:56;13.93;;;2.85;;
35644;SDS011;21764;52.042;6.830;2023-09-19T23:55:56;13.65;;;3.10;;
